METAR Data
IDs: Format: Raw Decoded Include TAF

Data at: 1233 UTC 26 Feb 2021

LSMD 261220Z 27005KT 230V310 CAVOK 16/02 Q1029 RMK BLU